createdAt,value
2023-02-22T00:01:51.336Z,13.25
2023-02-22T00:04:21.508Z,13.50
2023-02-22T00:06:49.982Z,15.00
2023-02-22T00:09:21.615Z,9.25
2023-02-22T00:11:49.422Z,19.50
2023-02-22T00:14:20.554Z,12.25
2023-02-22T00:16:47.746Z,10.75
2023-02-22T00:19:14.630Z,6.50
2023-02-22T00:21:41.536Z,7.00
2023-02-22T00:24:23.530Z,3.00
2023-02-22T00:26:52.676Z,7.25
2023-02-22T00:29:19.556Z,12.25
2023-02-22T00:31:46.471Z,10.00
2023-02-22T00:34:14.779Z,7.00
2023-02-22T00:36:51.149Z,5.25
2023-02-22T00:39:18.492Z,5.00
2023-02-22T00:41:45.546Z,5.00
2023-02-22T00:44:12.657Z,5.00
2023-02-22T00:46:39.614Z,2.25
2023-02-22T00:49:06.969Z,2.50
2023-02-22T00:51:34.179Z,5.00
2023-02-22T00:54:01.623Z,6.00
2023-02-22T00:56:28.951Z,3.00
2023-02-22T00:58:55.943Z,3.50
2023-02-22T01:01:24.461Z,4.50
2023-02-22T01:03:51.678Z,6.25
2023-02-22T01:06:18.777Z,2.50
2023-02-22T01:08:47.236Z,4.00
2023-02-22T01:11:16.544Z,4.75
2023-02-22T01:13:45.560Z,5.50
2023-02-22T01:16:12.781Z,1.50
2023-02-22T01:18:39.768Z,2.50
2023-02-22T01:21:07.001Z,2.00
2023-02-22T01:23:33.927Z,2.00
2023-02-22T01:26:00.871Z,2.00
2023-02-22T01:28:29.377Z,2.00
2023-02-22T01:30:56.658Z,3.00
2023-02-22T01:33:23.797Z,2.00
2023-02-22T01:35:51.728Z,4.00
2023-02-22T01:38:18.892Z,2.50
2023-02-22T01:40:49.778Z,2.00
2023-02-22T01:43:25.077Z,1.00
2023-02-22T01:45:55.098Z,2.25
2023-02-22T01:48:34.023Z,2.00
2023-02-22T01:51:25.120Z,3.00
2023-02-22T01:54:09.694Z,2.00
2023-02-22T01:56:42.222Z,2.50
2023-02-22T01:59:12.477Z,1.25
2023-02-22T02:01:43.305Z,5.00
2023-02-22T02:04:15.795Z,1.75
2023-02-22T02:06:43.326Z,1.50
2023-02-22T02:12:45.248Z,2.00
2023-02-22T02:15:41.435Z,3.50
2023-02-22T02:18:30.055Z,6.50
2023-02-22T02:21:11.964Z,5.75
2023-02-22T02:24:23.925Z,3.00
2023-02-22T02:27:17.383Z,5.00
2023-02-22T02:30:25.948Z,2.00
2023-02-22T02:33:06.955Z,3.00
2023-02-22T02:35:51.897Z,3.00
2023-02-22T02:38:34.514Z,2.00
2023-02-22T02:41:16.723Z,5.50
2023-02-22T02:43:55.200Z,5.50
2023-02-22T02:46:32.361Z,3.00
2023-02-22T02:49:05.897Z,2.50
2023-02-22T02:51:39.120Z,3.00
2023-02-22T02:54:07.712Z,3.00
2023-02-22T02:56:35.568Z,5.00
2023-02-22T02:59:02.504Z,5.25
2023-02-22T03:01:57.659Z,2.50
2023-02-22T03:04:55.758Z,2.25
2023-02-22T03:08:01.101Z,2.00
2023-02-22T03:10:50.661Z,12.25
2023-02-22T03:13:31.316Z,10.50
2023-02-22T03:16:03.929Z,10.50
2023-02-22T03:18:59.445Z,6.25
2023-02-22T03:21:43.664Z,6.00
2023-02-22T03:24:26.051Z,10.00
2023-02-22T03:27:04.236Z,10.50
2023-02-22T03:29:35.791Z,18.67
2023-02-22T03:32:08.131Z,11.00
2023-02-22T03:34:41.921Z,11.50
2023-02-22T03:37:16.484Z,3.00
2023-02-22T03:39:47.038Z,4.75
2023-02-22T03:42:30.461Z,5.75
2023-02-22T03:45:00.966Z,4.00
2023-02-22T03:47:40.260Z,6.00
2023-02-22T03:50:16.728Z,3.50
2023-02-22T03:52:45.254Z,5.50
2023-02-22T03:55:13.804Z,2.75
2023-02-22T03:57:50.275Z,6.75
2023-02-22T04:00:22.860Z,3.00
2023-02-22T04:02:50.096Z,3.50
2023-02-22T04:09:18.256Z,5.75
2023-02-22T04:11:46.061Z,5.75
2023-02-22T04:14:13.877Z,2.50
2023-02-22T04:16:40.922Z,6.00
2023-02-22T04:19:07.905Z,7.00
2023-02-22T04:21:35.111Z,3.00
2023-02-22T04:24:02.012Z,3.00
2023-02-22T04:26:29.006Z,5.00
2023-02-22T04:28:55.980Z,8.00
2023-02-22T04:31:23.234Z,7.25
2023-02-22T04:33:50.224Z,7.75
2023-02-22T04:36:17.227Z,10.25
2023-02-22T04:38:44.623Z,5.75
2023-02-22T04:41:11.753Z,5.25
2023-02-22T04:43:38.778Z,7.75
2023-02-22T04:46:06.061Z,5.75
2023-02-22T04:48:32.997Z,6.00
2023-02-22T04:50:59.972Z,5.25
2023-02-22T04:53:27.035Z,9.50
2023-02-22T04:55:54.006Z,6.75
2023-02-22T04:58:21.033Z,12.25
2023-02-22T05:00:48.092Z,11.00
2023-02-22T05:03:15.102Z,6.25
2023-02-22T05:05:42.082Z,11.50
2023-02-22T05:08:09.084Z,15.75
2023-02-22T05:10:36.084Z,11.25
2023-02-22T05:13:04.277Z,9.25
2023-02-22T05:15:31.364Z,11.00
2023-02-22T05:17:58.377Z,5.00
2023-02-22T05:20:29.428Z,7.00
2023-02-22T05:23:00.441Z,8.50
2023-02-22T05:25:27.842Z,22.00
2023-02-22T05:27:58.027Z,34.67
2023-02-22T05:30:32.178Z,29.00
2023-02-22T05:32:59.684Z,25.33
2023-02-22T05:35:29.192Z,29.00
2023-02-22T05:37:56.810Z,24.00
2023-02-22T05:40:26.441Z,26.00
2023-02-22T05:42:54.354Z,22.33
2023-02-22T05:45:23.924Z,12.00
2023-02-22T05:47:51.431Z,21.33
2023-02-22T05:50:20.085Z,31.00
2023-02-22T05:52:48.911Z,28.33
2023-02-22T05:55:18.205Z,24.00
2023-02-22T05:57:45.245Z,18.00
2023-02-22T06:00:18.405Z,23.33
2023-02-22T06:02:45.666Z,21.33
2023-02-22T06:05:12.785Z,14.67
2023-02-22T06:07:39.756Z,9.75
2023-02-22T06:10:06.834Z,11.00
2023-02-22T06:12:33.781Z,12.00
2023-02-22T06:15:00.716Z,24.00
2023-02-22T06:17:27.605Z,17.67
2023-02-22T06:19:54.485Z,15.00
2023-02-22T06:22:21.411Z,7.25
2023-02-22T06:24:48.363Z,23.33
2023-02-22T06:27:15.305Z,18.00
2023-02-22T06:29:47.143Z,10.75
2023-02-22T06:32:14.985Z,13.25
2023-02-22T06:34:41.935Z,16.00
2023-02-22T06:37:09.184Z,16.00
2023-02-22T06:39:36.101Z,8.25
2023-02-22T06:42:03.291Z,11.00
2023-02-22T06:44:30.255Z,16.00
2023-02-22T06:46:57.318Z,13.50
2023-02-22T06:49:24.346Z,14.75
2023-02-22T06:51:51.305Z,8.25
2023-02-22T06:54:18.257Z,7.00
2023-02-22T06:56:45.391Z,6.00
2023-02-22T06:59:12.343Z,8.75
2023-02-22T07:01:43.125Z,2.75
2023-02-22T07:04:10.308Z,3.50
2023-02-22T07:06:37.779Z,4.00
2023-02-22T07:09:04.676Z,5.00
2023-02-22T07:11:31.786Z,6.00
2023-02-22T07:13:58.769Z,11.25
2023-02-22T07:16:25.738Z,4.00
2023-02-22T07:18:52.770Z,4.50
2023-02-22T07:21:19.811Z,4.00
2023-02-22T07:23:54.740Z,1.00
2023-02-22T07:26:23.476Z,4.50
2023-02-22T07:28:50.778Z,3.50
2023-02-22T07:31:18.515Z,2.00
2023-02-22T07:33:49.449Z,2.25
2023-02-22T07:36:18.190Z,0.00
2023-02-22T07:38:45.958Z,3.25
2023-02-22T07:41:13.418Z,4.00
2023-02-22T07:43:40.362Z,5.00
2023-02-22T07:46:07.370Z,6.25
2023-02-22T07:48:34.360Z,3.50
2023-02-22T07:51:01.352Z,8.00
2023-02-22T07:53:31.433Z,9.50
2023-02-22T07:55:59.927Z,7.50
2023-02-22T07:58:28.568Z,7.75
2023-02-22T08:00:55.924Z,8.50
2023-02-22T08:03:25.536Z,6.25
2023-02-22T08:05:57.614Z,6.00
2023-02-22T08:08:24.794Z,4.00
2023-02-22T08:10:53.399Z,20.50
2023-02-22T08:13:22.377Z,16.00
2023-02-22T08:15:52.154Z,10.00
2023-02-22T08:18:20.429Z,9.50
2023-02-22T08:20:49.680Z,11.00
2023-02-22T08:23:17.896Z,6.25
2023-02-22T08:25:45.264Z,6.00
2023-02-22T08:28:15.816Z,6.00
2023-02-22T08:30:46.458Z,18.50
2023-02-22T08:33:17.075Z,15.00
2023-02-22T08:35:44.242Z,13.00
2023-02-22T08:38:24.144Z,7.00
2023-02-22T08:40:51.610Z,16.00
2023-02-22T08:43:19.874Z,9.25
2023-02-22T08:45:48.115Z,8.00
2023-02-22T08:48:16.113Z,8.50
2023-02-22T08:50:44.584Z,24.00
2023-02-22T08:53:13.906Z,16.50
2023-02-22T08:55:42.223Z,21.00
2023-02-22T08:58:09.688Z,13.25
2023-02-22T09:00:39.091Z,12.50
2023-02-22T09:03:13.468Z,9.75
2023-02-22T09:05:41.595Z,7.75
2023-02-22T09:08:08.908Z,4.00
2023-02-22T09:10:36.619Z,8.00
2023-02-22T09:13:04.446Z,11.00
2023-02-22T09:15:32.246Z,13.00
2023-02-22T09:17:59.619Z,9.25
2023-02-22T09:20:27.215Z,11.25
2023-02-22T09:22:55.308Z,12.00
2023-02-22T09:25:22.949Z,8.00
2023-02-22T09:27:52.338Z,6.25
2023-02-22T09:30:32.420Z,8.00
2023-02-22T09:33:02.734Z,6.75
2023-02-22T09:35:29.924Z,6.25
2023-02-22T09:37:58.486Z,13.25
2023-02-22T09:40:30.320Z,15.00
2023-02-22T09:43:25.124Z,11.50
2023-02-22T09:46:22.793Z,13.00
2023-02-22T09:49:02.304Z,9.75
2023-02-22T09:51:42.506Z,14.50
2023-02-22T09:54:24.895Z,11.75
2023-02-22T09:56:56.261Z,7.75
2023-02-22T09:59:28.879Z,11.50
2023-02-22T10:02:20.128Z,16.75
2023-02-22T10:05:09.800Z,15.00
2023-02-22T10:07:59.605Z,9.50
2023-02-22T10:10:33.861Z,7.25
2023-02-22T10:13:17.273Z,6.25
2023-02-22T10:16:08.504Z,6.25
2023-02-22T10:19:23.312Z,13.50
2023-02-22T10:22:05.160Z,14.00
2023-02-22T10:24:50.649Z,10.25
2023-02-22T10:27:28.470Z,9.00
2023-02-22T10:30:15.542Z,9.00
2023-02-22T10:33:22.582Z,14.00
2023-02-22T10:35:52.355Z,12.00
2023-02-22T10:38:30.486Z,9.00
2023-02-22T10:41:09.165Z,14.75
2023-02-22T10:43:41.914Z,12.50
2023-02-22T10:46:15.650Z,8.50
2023-02-22T10:48:45.821Z,7.25
2023-02-22T10:51:13.773Z,10.50
2023-02-22T10:53:41.125Z,13.00
2023-02-22T10:56:22.851Z,9.00
2023-02-22T10:58:55.476Z,4.00
2023-02-22T11:01:26.644Z,10.25
2023-02-22T11:04:17.787Z,9.75
2023-02-22T11:06:48.501Z,9.75
2023-02-22T11:09:23.996Z,6.00
2023-02-22T11:12:08.512Z,7.00
2023-02-22T11:14:35.459Z,5.00
2023-02-22T11:17:08.054Z,9.50
2023-02-22T11:19:39.350Z,11.25
2023-02-22T11:22:06.232Z,9.00
2023-02-22T11:24:48.344Z,7.00
2023-02-22T11:27:38.912Z,7.00
2023-02-22T11:30:32.527Z,8.00
2023-02-22T11:33:06.422Z,10.00
2023-02-22T11:35:38.416Z,10.00
2023-02-22T11:38:16.405Z,8.00
2023-02-22T11:40:44.394Z,5.25
2023-02-22T11:43:19.945Z,6.75
2023-02-22T11:46:20.755Z,8.00
2023-02-22T11:49:08.623Z,13.25
2023-02-22T11:51:43.111Z,8.50
2023-02-22T11:54:31.975Z,7.75
2023-02-22T11:57:22.390Z,7.00
2023-02-22T12:00:01.510Z,11.00
2023-02-22T12:03:01.072Z,7.00
2023-02-22T12:06:01.543Z,6.50
2023-02-22T12:08:57.180Z,4.00
2023-02-22T12:11:32.480Z,3.75
2023-02-22T12:14:05.847Z,6.75
2023-02-22T12:16:39.581Z,8.00
2023-02-22T12:19:25.470Z,5.00
2023-02-22T12:22:02.577Z,8.00
2023-02-22T12:24:38.567Z,12.00
2023-02-22T12:27:33.936Z,10.25
2023-02-22T12:30:26.741Z,9.75
2023-02-22T12:32:59.257Z,12.50
2023-02-22T12:35:37.669Z,11.25
2023-02-22T12:38:31.568Z,11.00
2023-02-22T12:41:06.454Z,8.75
2023-02-22T12:43:47.931Z,13.00
2023-02-22T12:46:24.440Z,13.00
2023-02-22T12:49:19.289Z,12.00
2023-02-22T12:51:57.625Z,9.00
2023-02-22T12:54:32.582Z,8.00
2023-02-22T12:57:24.657Z,12.25
2023-02-22T13:00:15.926Z,11.00
2023-02-22T13:03:09.743Z,8.00
2023-02-22T13:05:41.616Z,8.00
2023-02-22T13:08:26.535Z,7.50
2023-02-22T13:10:53.426Z,8.50
2023-02-22T13:13:30.123Z,12.00
2023-02-22T13:16:18.684Z,13.25
2023-02-22T13:19:09.361Z,12.50
2023-02-22T13:21:54.792Z,7.75
2023-02-22T13:24:43.193Z,8.00
2023-02-22T13:27:15.683Z,11.50
2023-02-22T13:29:47.415Z,18.00
2023-02-22T13:32:32.395Z,19.25
2023-02-22T13:35:26.798Z,14.25
2023-02-22T13:38:15.811Z,9.00
2023-02-22T13:41:12.544Z,12.50
2023-02-22T13:44:01.283Z,13.50
2023-02-22T13:46:37.328Z,9.75
2023-02-22T13:49:41.391Z,18.50
2023-02-22T13:52:20.335Z,14.25
2023-02-22T13:54:55.953Z,13.25
2023-02-22T13:57:27.541Z,14.50
2023-02-22T14:00:16.190Z,8.00
2023-02-22T14:03:01.734Z,8.25
2023-02-22T14:05:44.943Z,6.25
2023-02-22T14:08:19.060Z,7.00
2023-02-22T14:10:55.586Z,0.00
2023-02-22T14:13:27.465Z,8.25
2023-02-22T14:16:00.626Z,11.00
2023-02-22T14:18:28.731Z,12.00
2023-02-22T14:21:12.147Z,10.00
2023-02-22T14:23:41.007Z,8.00
2023-02-22T14:26:31.709Z,8.00
2023-02-22T14:29:09.728Z,8.00
2023-02-22T14:31:45.333Z,13.00
2023-02-22T14:34:22.587Z,13.25
2023-02-22T14:36:55.054Z,12.00
2023-02-22T14:39:44.207Z,9.00
2023-02-22T14:42:15.069Z,8.25
2023-02-22T14:45:03.289Z,9.00
2023-02-22T14:47:41.251Z,13.25
2023-02-22T14:50:16.906Z,12.00
2023-02-22T14:52:49.155Z,12.00
2023-02-22T14:55:25.840Z,14.75
2023-02-22T14:58:19.578Z,9.00
2023-02-22T15:00:49.280Z,12.25
2023-02-22T15:03:37.907Z,11.00
2023-02-22T15:06:15.892Z,8.00
2023-02-22T15:08:48.963Z,8.00
2023-02-22T15:11:31.331Z,7.25
2023-02-22T15:14:00.279Z,3.25
2023-02-22T15:16:32.411Z,8.25
2023-02-22T15:19:04.115Z,40.00
2023-02-22T15:21:32.440Z,11.00
2023-02-22T15:24:04.402Z,14.75
2023-02-22T15:26:42.461Z,12.25
2023-02-22T15:29:20.708Z,26.00
2023-02-22T15:31:48.755Z,10.00
2023-02-22T15:34:15.652Z,9.50
2023-02-22T15:36:43.939Z,7.00
2023-02-22T15:39:27.360Z,5.75
2023-02-22T15:42:19.422Z,3.00
2023-02-22T15:44:48.400Z,4.00
2023-02-22T15:47:29.709Z,5.75
2023-02-22T15:50:23.521Z,4.50
2023-02-22T15:53:07.147Z,3.00
2023-02-22T15:55:40.198Z,3.00
2023-02-22T15:58:19.129Z,2.25
2023-02-22T16:00:51.487Z,2.50
2023-02-22T16:03:28.922Z,3.00
2023-02-22T16:05:57.380Z,3.00
2023-02-22T16:08:29.598Z,4.00
2023-02-22T16:11:13.224Z,3.00
2023-02-22T16:13:51.439Z,2.00
2023-02-22T16:16:20.933Z,3.00
2023-02-22T16:18:49.714Z,2.00
2023-02-22T16:21:21.848Z,2.00
2023-02-22T16:23:56.015Z,2.00
2023-02-22T16:26:31.661Z,3.00
2023-02-22T16:29:03.870Z,0.75
2023-02-22T16:31:37.040Z,2.75
2023-02-22T16:34:07.113Z,4.00
2023-02-22T16:36:46.283Z,6.00
2023-02-22T16:39:27.495Z,3.00
2023-02-22T16:41:56.950Z,4.25
2023-02-22T17:37:33.130Z,14.00
2023-02-22T17:40:19.441Z,11.75
2023-02-22T17:43:00.095Z,8.50
2023-02-22T17:49:28.684Z,7.00
2023-02-22T17:59:02.123Z,8.50
2023-02-22T18:02:00.829Z,11.25
2023-02-22T18:05:15.969Z,14.25
2023-02-22T18:08:28.466Z,15.00
2023-02-22T18:17:40.872Z,17.75
2023-02-22T18:20:56.569Z,10.00
2023-02-22T18:41:50.407Z,26.33
2023-02-22T18:44:22.775Z,28.33
2023-02-22T19:04:24.442Z,40.25
2023-02-22T19:29:47.152Z,37.00
2023-02-22T19:32:18.946Z,36.33
2023-02-22T19:35:14.997Z,31.00
2023-02-22T19:45:51.781Z,26.33
2023-02-22T19:52:32.053Z,21.67
2023-02-22T20:03:27.133Z,27.00
2023-02-22T20:06:42.755Z,35.00
2023-02-22T20:16:50.512Z,24.67
2023-02-22T20:47:17.882Z,41.50
2023-02-22T20:49:49.168Z,38.00
2023-02-22T20:52:32.065Z,31.67
2023-02-22T20:55:32.130Z,34.00
2023-02-22T21:29:13.612Z,31.00
2023-02-22T21:32:08.350Z,30.00
2023-02-22T21:53:33.643Z,35.50
2023-02-22T22:11:54.045Z,41.75
2023-02-22T22:18:20.723Z,37.25
2023-02-22T22:21:04.048Z,43.00
2023-02-22T22:23:43.924Z,39.25
2023-02-22T22:34:17.520Z,39.00
2023-02-22T23:01:46.569Z,27.33
2023-02-22T23:04:30.862Z,26.67
2023-02-22T23:11:55.545Z,25.33
2023-02-22T23:20:29.356Z,25.33
2023-02-22T23:23:02.254Z,27.33
2023-02-22T23:29:29.874Z,23.33
2023-02-22T23:39:57.684Z,24.33
2023-02-22T23:54:46.935Z,20.33
